Time;durP1;ratioP1;P1;durP2;ratioP2;P2;SDS_P1;SDS_P2;PMS_P1;PMS_P2;Temp;Humidity;BMP_temperature;BMP_pressure;BME280_temperature;BME280_humidity;BME280_pressure;Samples;Min_cycle;Max_cycle;Signal;HPM_P1;HPM_P2
2022/05/20 00:00:09;;;;;;;3.33;3.13;;;;;;;11.39;65.38;96107.19;5063898;28;20198;-81
2022/05/20 00:02:36;;;;;;;5.20;2.60;;;;;;;11.61;64.63;96120.34;5065737;28;20197;-81
2022/05/20 00:05:04;;;;;;;5.65;2.97;;;;;;;11.99;63.44;96116.16;5064324;28;20366;-81
2022/05/20 00:07:31;;;;;;;6.13;2.63;;;;;;;12.12;63.49;96115.03;5063924;28;20209;-81
2022/05/20 00:09:58;;;;;;;3.47;3.17;;;;;;;12.09;63.11;96098.09;5063136;28;20227;-83
2022/05/20 00:12:25;;;;;;;2.85;2.65;;;;;;;12.37;62.96;96111.03;5065537;28;20924;-80
2022/05/20 00:14:53;;;;;;;3.83;3.53;;;;;;;12.26;62.36;96098.53;5064981;28;20206;-78
2022/05/20 00:17:20;;;;;;;3.60;3.30;;;;;;;12.18;63.21;96104.69;5064554;28;21991;-82
2022/05/20 00:19:47;;;;;;;3.38;2.88;;;;;;;12.10;62.71;96093.84;5065523;28;20211;-80
2022/05/20 00:22:14;;;;;;;2.85;2.60;;;;;;;12.26;62.72;96116.38;5065990;28;20202;-79
2022/05/20 00:27:21;;;;;;;4.72;2.97;;;;;;;12.48;62.32;96123.50;5064557;28;20201;-81
2022/05/20 00:29:48;;;;;;;4.82;2.90;;;;;;;12.41;63.13;96119.44;5064937;28;20206;-81
2022/05/20 00:32:16;;;;;;;3.55;3.17;;;;;;;12.31;63.29;96120.53;5065044;28;20229;-79
2022/05/20 00:34:43;;;;;;;6.47;3.13;;;;;;;12.51;62.38;96131.09;5063846;28;20209;-77
2022/05/20 00:37:10;;;;;;;3.25;2.58;;;;;;;12.60;62.56;96131.72;5064305;28;20683;-78
2022/05/20 00:39:36;;;;;;;3.03;2.72;;;;;;;12.45;62.87;96114.22;5064532;28;20215;-78
2022/05/20 00:42:11;;;;;;;6.93;3.03;;;;;;;12.54;63.28;96136.13;5065882;28;20206;-76
2022/05/20 00:44:38;;;;;;;3.17;2.80;;;;;;;12.40;63.94;96126.22;5064377;28;20287;-80
2022/05/20 00:47:04;;;;;;;5.35;2.90;;;;;;;12.32;63.94;96125.59;5063922;28;20592;-78
2022/05/20 00:49:35;;;;;;;5.70;2.65;;;;;;;12.30;64.14;96129.88;5064377;28;20566;-82
2022/05/20 00:52:03;;;;;;;5.85;3.00;;;;;;;12.23;64.29;96141.09;5066290;28;20198;-80
2022/05/20 00:54:35;;;;;;;3.92;2.75;;;;;;;11.80;64.94;96103.00;5064659;28;20208;-80
2022/05/20 00:57:06;;;;;;;5.55;2.80;;;;;;;12.00;64.70;96140.78;5063482;28;20689;-78
2022/05/20 00:59:36;;;;;;;6.00;2.90;;;;;;;11.96;65.25;96131.50;5063158;28;20200;-79
2022/05/20 01:02:08;;;;;;;4.47;2.50;;;;;;;11.91;65.03;96116.31;5066555;28;21304;-78
2022/05/20 01:04:37;;;;;;;2.75;2.55;;;;;;;11.89;65.62;96130.78;5069376;28;20205;-82
2022/05/20 01:07:05;;;;;;;3.10;2.80;;;;;;;11.76;66.09;96134.47;5069361;28;20310;-80
2022/05/20 01:09:32;;;;;;;2.75;2.55;;;;;;;11.72;66.15;96120.94;5069555;28;20197;-79
2022/05/20 01:11:58;;;;;;;4.20;2.55;;;;;;;11.91;65.55;96134.16;5067846;28;20212;-78
2022/05/20 01:14:26;;;;;;;4.07;2.67;;;;;;;11.60;66.01;96118.69;5064508;28;20279;-78
2022/05/20 01:16:54;;;;;;;3.58;2.80;;;;;;;11.20;66.87;96114.38;5066770;28;20231;-80
2022/05/20 01:19:31;;;;;;;3.10;2.75;;;;;;;11.32;66.44;96113.31;5066229;28;20198;-80
2022/05/20 01:21:59;;;;;;;16.13;2.83;;;;;;;11.50;66.41;96114.63;5065044;28;20337;-78
2022/05/20 01:24:27;;;;;;;4.43;3.03;;;;;;;11.70;65.95;96104.03;5065532;28;20205;-78
2022/05/20 01:26:54;;;;;;;5.75;3.05;;;;;;;11.77;65.15;96118.34;5066218;28;20894;-77
2022/05/20 01:29:21;;;;;;;2.65;2.45;;;;;;;11.77;64.95;96113.25;5066334;28;20243;-80
2022/05/20 01:31:48;;;;;;;5.13;3.28;;;;;;;11.77;64.95;96121.72;5068098;28;20742;-80
2022/05/20 01:34:15;;;;;;;3.00;2.60;;;;;;;11.79;64.97;96120.00;5068014;28;20767;-79
2022/05/20 01:36:42;;;;;;;3.38;2.45;;;;;;;11.85;64.33;96124.97;5066014;28;20291;-79
2022/05/20 01:39:09;;;;;;;2.63;2.30;;;;;;;11.87;63.70;96123.22;5065796;28;20210;-78
2022/05/20 01:41:42;;;;;;;3.33;2.45;;;;;;;11.73;64.68;96129.44;5069214;28;20198;-78
2022/05/20 01:44:15;;;;;;;3.47;2.70;;;;;;;11.64;65.13;96124.50;5067956;28;20741;-78
2022/05/20 01:46:45;;;;;;;3.50;2.30;;;;;;;11.78;64.53;96127.66;5067646;28;21626;-77
2022/05/20 01:49:26;;;;;;;3.92;2.38;;;;;;;11.62;64.79;96127.13;5067989;28;20216;-77
2022/05/20 01:51:59;;;;;;;3.95;2.60;;;;;;;11.70;64.64;96130.31;5068941;28;20702;-77
2022/05/20 01:54:33;;;;;;;2.60;1.92;;;;;;;11.72;63.97;96128.59;5066896;28;20784;-78
2022/05/20 01:57:08;;;;;;;2.80;2.10;;;;;;;11.79;63.67;96126.78;5067391;28;20206;-79
2022/05/20 01:59:42;;;;;;;2.55;1.95;;;;;;;11.78;62.99;96128.50;5067110;28;20279;-77
2022/05/20 02:02:14;;;;;;;2.55;2.35;;;;;;;11.46;64.50;96128.28;5067778;28;20201;-77
2022/05/20 02:04:45;;;;;;;4.95;2.63;;;;;;;11.51;64.60;96139.22;5065681;28;20901;-77
2022/05/20 02:07:17;;;;;;;3.60;2.17;;;;;;;11.50;64.45;96133.28;5066969;28;20309;-78
2022/05/20 02:09:50;;;;;;;2.30;2.20;;;;;;;11.46;64.17;96133.38;5067201;28;20198;-79
2022/05/20 02:12:23;;;;;;;2.22;2.10;;;;;;;11.41;64.36;96128.38;5064938;28;20684;-78
2022/05/20 02:14:55;;;;;;;3.67;2.20;;;;;;;11.42;64.62;96134.28;5065641;28;20692;-78
2022/05/20 02:17:28;;;;;;;2.70;1.80;;;;;;;11.36;64.73;96129.34;5067991;28;20274;-78
2022/05/20 02:19:58;;;;;;;4.20;2.60;;;;;;;11.25;64.36;96111.75;5065792;28;20241;-77
2022/05/20 02:22:29;;;;;;;1.83;1.73;;;;;;;11.22;63.39;96124.50;5067364;28;20657;-77
2022/05/20 02:24:58;;;;;;;2.00;1.52;;;;;;;10.66;64.95;96139.06;5066679;28;20198;-78
2022/05/20 02:27:29;;;;;;;2.10;1.83;;;;;;;10.52;66.17;96133.41;5066543;28;20234;-79
2022/05/20 02:30:02;;;;;;;3.10;1.63;;;;;;;10.74;66.25;96139.78;5074775;28;20190;-78
2022/05/20 02:32:31;;;;;;;4.15;1.83;;;;;;;10.93;64.80;96136.94;5075948;28;20209;-79
2022/05/20 02:34:58;;;;;;;2.72;2.20;;;;;;;11.06;64.65;96140.94;5067776;28;20194;-78
2022/05/20 02:37:27;;;;;;;3.30;2.40;;;;;;;11.12;64.56;96140.84;5068959;28;20209;-80
2022/05/20 02:39:55;;;;;;;4.57;1.90;;;;;;;11.25;64.04;96144.81;5068338;28;20298;-78
2022/05/20 02:42:22;;;;;;;4.95;2.17;;;;;;;11.03;64.33;96125.72;5069215;28;20209;-78
2022/05/20 02:44:50;;;;;;;2.20;1.88;;;;;;;10.82;65.17;96121.88;5068356;28;20201;-77
2022/05/20 02:47:18;;;;;;;4.32;1.95;;;;;;;10.95;65.11;96132.66;5067827;28;20221;-80
2022/05/20 02:49:45;;;;;;;2.33;1.92;;;;;;;10.98;64.61;96128.34;5067033;28;20202;-77
2022/05/20 02:52:11;;;;;;;4.30;2.28;;;;;;;10.54;66.71;96136.75;5068444;28;20300;-78
2022/05/20 02:54:38;;;;;;;2.75;2.25;;;;;;;9.81;69.49;96118.34;5067699;28;20206;-77
2022/05/20 02:57:06;;;;;;;2.90;2.70;;;;;;;9.70;70.59;96135.41;5068317;28;20214;-81
2022/05/20 03:05:03;;;;;;;9.45;3.42;;;;;;;9.61;71.03;96137.25;5067306;28;20670;-78
2022/05/20 03:07:30;;;;;;;4.38;2.97;;;;;;;9.89;70.20;96136.03;5067790;28;20283;-77
2022/05/20 03:09:56;;;;;;;3.25;3.05;;;;;;;10.16;69.28;96145.75;5067192;28;20206;-78
2022/05/20 03:12:26;;;;;;;3.75;2.33;;;;;;;10.35;68.78;96138.75;5068792;28;20299;-78
2022/05/20 03:14:53;;;;;;;4.28;2.22;;;;;;;10.63;67.97;96140.84;5067654;28;20201;-78
2022/05/20 03:17:21;;;;;;;4.97;2.20;;;;;;;10.78;66.96;96126.16;5067822;28;20202;-80
2022/05/20 03:19:47;;;;;;;6.38;2.33;;;;;;;10.58;67.56;96133.31;5066772;28;20275;-78
2022/05/20 03:22:14;;;;;;;2.50;2.25;;;;;;;10.52;67.96;96133.41;5067608;28;20201;-80
2022/05/20 03:24:42;;;;;;;3.88;2.63;;;;;;;10.70;66.79;96130.53;5066893;28;20208;-77
2022/05/20 03:27:08;;;;;;;4.15;2.50;;;;;;;11.17;66.08;96134.78;5066414;28;20221;-79
2022/05/20 03:29:35;;;;;;;3.22;2.80;;;;;;;11.57;64.59;96134.84;5066455;28;20206;-81
2022/05/20 03:32:02;;;;;;;4.40;3.53;;;;;;;12.48;62.03;96138.81;5066710;28;20764;-78
2022/05/20 03:34:30;;;;;;;20.20;11.85;;;;;;;13.16;58.92;96149.03;5065474;28;20275;-78
2022/05/20 03:36:58;;;;;;;20.73;10.90;;;;;;;13.55;57.96;96144.56;5066076;28;20250;-80
2022/05/20 03:39:25;;;;;;;14.63;10.30;;;;;;;13.74;56.46;96147.44;5064937;28;20201;-78
2022/05/20 03:41:53;;;;;;;11.85;7.90;;;;;;;13.85;56.10;96159.03;5064766;28;20792;-80
2022/05/20 03:44:20;;;;;;;10.18;4.95;;;;;;;13.68;55.87;96160.38;5066141;28;20285;-78
2022/05/20 03:46:51;;;;;;;3.63;3.17;;;;;;;13.07;57.54;96151.81;5064618;28;20237;-78
2022/05/20 03:49:19;;;;;;;10.45;2.95;;;;;;;12.76;58.94;96156.84;5066079;28;20209;-78
2022/05/20 03:51:48;;;;;;;9.98;4.45;;;;;;;12.65;58.97;96146.03;5065588;28;20246;-78
2022/05/20 03:54:16;;;;;;;5.88;4.32;;;;;;;12.34;60.03;96163.81;5064566;28;20209;-78
2022/05/20 03:56:43;;;;;;;6.50;5.32;;;;;;;12.45;60.47;96175.41;5064524;28;20198;-79
2022/05/20 03:59:10;;;;;;;7.15;5.38;;;;;;;12.20;61.24;96169.19;5066016;28;20201;-78
2022/05/20 04:04:25;;;;;;;12.43;8.70;;;;;;;12.79;59.87;96172.91;5064112;28;20707;-78
2022/05/20 04:06:54;;;;;;;22.15;13.40;;;;;;;12.99;58.81;96180.06;5064872;28;20765;-78
2022/05/20 04:09:21;;;;;;;17.55;12.35;;;;;;;13.19;58.10;96184.69;5065976;28;20197;-78
2022/05/20 04:11:52;;;;;;;11.80;6.88;;;;;;;13.17;57.74;96159.19;5066725;28;20206;-80
2022/05/20 04:14:19;;;;;;;6.45;5.85;;;;;;;13.66;56.77;96182.56;5066526;28;20220;-79
2022/05/20 04:16:45;;;;;;;4.93;4.50;;;;;;;13.23;57.43;96176.06;5065613;28;20631;-78
2022/05/20 04:19:12;;;;;;;8.27;4.40;;;;;;;12.59;58.56;96181.03;5065889;28;20233;-79
2022/05/20 04:21:41;;;;;;;4.57;4.15;;;;;;;12.38;59.06;96152.63;5065452;28;20279;-78
2022/05/20 04:24:09;;;;;;;7.00;4.32;;;;;;;12.18;60.45;96174.31;5066501;28;20917;-77
2022/05/20 04:26:36;;;;;;;7.22;6.38;;;;;;;12.54;59.53;96166.72;5065457;28;21499;-78
2022/05/20 04:29:03;;;;;;;18.17;12.80;;;;;;;13.07;57.75;96167.97;5066201;28;20205;-77
2022/05/20 04:31:30;;;;;;;10.50;7.32;;;;;;;12.83;58.92;96171.97;5065517;28;20708;-78
2022/05/20 04:33:57;;;;;;;7.10;6.25;;;;;;;13.36;57.61;96174.06;5066110;28;20311;-79
2022/05/20 04:36:23;;;;;;;8.65;5.43;;;;;;;13.77;56.70;96178.00;5065091;28;20522;-77
2022/05/20 04:38:50;;;;;;;9.73;5.53;;;;;;;13.61;56.96;96183.53;5066611;28;20229;-79
2022/05/20 04:46:59;;;;;;;24.60;14.40;;;;;;;14.75;53.15;96174.19;5064683;28;20320;-77
2022/05/20 04:49:26;;;;;;;15.20;8.45;;;;;;;14.90;52.83;96183.94;5064720;28;20385;-79
2022/05/20 04:51:53;;;;;;;7.03;6.32;;;;;;;14.97;52.58;96180.28;5065764;28;20201;-78
2022/05/20 04:57:07;;;;;;;6.22;3.78;;;;;;;15.09;52.60;96183.34;5065297;28;20220;-77
2022/05/20 04:59:35;;;;;;;6.95;3.67;;;;;;;15.00;53.09;96186.19;5065111;28;20212;-77
2022/05/20 05:02:02;;;;;;;4.10;3.40;;;;;;;14.76;53.50;96195.50;5065966;28;20197;-77
2022/05/20 05:04:29;;;;;;;5.15;4.65;;;;;;;15.03;52.97;96191.22;5063747;28;20189;-80
2022/05/20 05:06:56;;;;;;;4.22;3.40;;;;;;;15.34;52.11;96166.25;5063928;28;21139;-78
2022/05/20 05:09:23;;;;;;;3.45;3.25;;;;;;;16.20;50.18;96192.22;5065251;28;20258;-78
2022/05/20 05:11:49;;;;;;;4.45;4.07;;;;;;;17.82;46.70;96189.03;5065780;28;20198;-79
2022/05/20 05:14:17;;;;;;;3.78;3.45;;;;;;;19.74;41.74;96179.84;5065094;28;20206;-79
2022/05/20 05:16:44;;;;;;;5.70;3.70;;;;;;;21.98;38.21;96181.81;5064113;28;20197;-78
2022/05/20 05:19:12;;;;;;;4.40;3.95;;;;;;;24.48;34.02;96175.72;5066140;28;20621;-79
2022/05/20 05:21:39;;;;;;;3.88;3.53;;;;;;;25.58;31.17;96176.28;5063236;28;20244;-80
2022/05/20 05:24:07;;;;;;;4.57;3.65;;;;;;;27.58;28.05;96166.47;5063041;28;20304;-79
2022/05/20 05:26:35;;;;;;;5.57;3.70;;;;;;;28.74;26.31;96166.91;5062409;28;20198;-79
2022/05/20 05:29:03;;;;;;;4.07;3.33;;;;;;;29.77;25.29;96165.38;5067568;28;20293;-78
2022/05/20 05:31:31;;;;;;;8.25;4.60;;;;;;;31.28;23.42;96158.75;5069652;28;21288;-78
2022/05/20 05:33:58;;;;;;;11.45;6.47;;;;;;;31.02;23.76;96169.16;5063759;28;20209;-80
2022/05/20 05:36:25;;;;;;;7.22;5.03;;;;;;;31.85;22.78;96155.72;5062905;28;20224;-79
2022/05/20 05:38:52;;;;;;;6.22;4.38;;;;;;;32.76;21.60;96162.06;5065270;28;20275;-78
2022/05/20 05:41:19;;;;;;;8.75;3.67;;;;;;;33.61;20.55;96158.16;5065716;28;20221;-78
2022/05/20 05:43:47;;;;;;;4.50;4.15;;;;;;;32.82;21.00;96165.84;5065273;28;20212;-78
2022/05/20 05:46:14;;;;;;;5.65;4.03;;;;;;;32.73;21.17;96162.34;5062911;28;20292;-78
2022/05/20 05:48:42;;;;;;;5.03;4.70;;;;;;;31.11;22.39;96160.44;5066374;28;20229;-77
2022/05/20 05:51:09;;;;;;;6.97;4.55;;;;;;;31.71;22.12;96163.19;5069430;28;21964;-79
2022/05/20 05:53:35;;;;;;;9.85;4.78;;;;;;;31.85;21.93;96150.47;5069192;28;20201;-77
2022/05/20 05:56:05;;;;;;;5.20;4.70;;;;;;;31.35;22.69;96159.81;5068624;28;20584;-78
2022/05/20 05:58:33;;;;;;;4.75;4.30;;;;;;;31.35;22.41;96149.28;5069029;28;20213;-78
2022/05/20 06:01:00;;;;;;;4.95;4.40;;;;;;;30.35;23.66;96152.06;5068655;28;20270;-78
2022/05/20 06:03:27;;;;;;;4.30;4.00;;;;;;;30.01;23.76;96167.53;5068656;28;20205;-79
2022/05/20 06:05:56;;;;;;;6.32;4.63;;;;;;;29.48;24.48;96161.97;5067289;28;20642;-79
2022/05/20 06:08:23;;;;;;;4.95;4.47;;;;;;;30.34;23.42;96158.28;5068362;28;20723;-78
2022/05/20 06:10:50;;;;;;;6.18;4.30;;;;;;;30.28;23.75;96161.47;5068246;28;20314;-79
2022/05/20 06:13:23;;;;;;;8.13;4.28;;;;;;;30.83;23.45;96153.56;5068862;28;20271;-78
2022/05/20 06:15:51;;;;;;;10.15;4.90;;;;;;;30.32;23.75;96154.13;5067666;28;20292;-79
2022/05/20 06:18:18;;;;;;;7.32;4.40;;;;;;;30.74;23.13;96151.84;5068264;28;20197;-78
2022/05/20 06:20:44;;;;;;;4.93;4.00;;;;;;;29.85;23.47;96148.09;5068256;28;20240;-79
2022/05/20 06:23:13;;;;;;;4.70;4.03;;;;;;;29.53;24.31;96146.66;5068705;28;20209;-78
2022/05/20 06:25:39;;;;;;;8.35;4.50;;;;;;;29.51;24.83;96158.25;5066921;28;20205;-79
2022/05/20 06:28:09;;;;;;;8.73;3.83;;;;;;;28.73;100.00;96158.22;5068120;28;20229;-78
2022/05/20 06:30:36;;;;;;;6.93;4.10;;;;;;;29.23;24.81;96144.19;5067773;28;20201;-79
2022/05/20 06:33:04;;;;;;;8.23;3.40;;;;;;;29.53;24.25;96148.47;5068181;28;20212;-80
2022/05/20 06:41:02;;;;;;;7.80;4.03;;;;;;;28.08;26.74;96151.72;5067023;28;20778;-77
2022/05/20 06:43:29;;;;;;;4.82;4.30;;;;;;;27.96;26.10;96141.50;5067812;28;20205;-79
2022/05/20 06:46:00;;;;;;;4.78;4.28;;;;;;;27.04;27.62;96149.16;5066120;28;20205;-81
2022/05/20 06:48:38;;;;;;;5.07;4.65;;;;;;;27.08;27.67;96140.13;5067896;28;20230;-81
2022/05/20 06:51:05;;;;;;;10.25;3.85;;;;;;;26.84;28.26;96155.16;5066276;28;20206;-80
2022/05/20 06:53:33;;;;;;;8.77;4.43;;;;;;;26.46;29.05;96144.38;5066892;28;20198;-79
2022/05/20 06:56:00;;;;;;;5.30;4.18;;;;;;;25.08;30.09;96141.03;5066309;28;20198;-79
2022/05/20 06:58:27;;;;;;;7.82;4.40;;;;;;;25.35;30.62;96153.78;5067241;28;20213;-79
2022/05/20 07:00:54;;;;;;;5.80;5.13;;;;;;;24.90;31.19;96145.81;5066456;28;20677;-82
2022/05/20 07:03:21;;;;;;;5.13;4.78;;;;;;;24.31;31.45;96145.72;5067716;28;20202;-80
2022/05/20 07:05:49;;;;;;;28.95;8.38;;;;;;;24.25;32.49;96137.56;5066406;28;20202;-79
2022/05/20 07:08:17;;;;;;;10.23;5.80;;;;;;;24.80;31.17;96138.78;5065669;28;20348;-79
2022/05/20 07:10:45;;;;;;;12.40;4.28;;;;;;;24.58;30.33;96131.72;5065577;28;20688;-79
2022/05/20 07:13:13;;;;;;;5.38;4.18;;;;;;;24.09;31.45;96137.75;5065354;28;20961;-79
2022/05/20 07:15:40;;;;;;;4.90;4.50;;;;;;;24.09;32.52;96140.34;5064186;28;20202;-79
2022/05/20 07:18:07;;;;;;;12.88;3.83;;;;;;;23.81;32.26;96140.59;5066362;28;20665;-77
2022/05/20 07:20:34;;;;;;;13.18;5.47;;;;;;;23.67;33.14;96139.81;5065039;28;20240;-80
2022/05/20 07:23:01;;;;;;;12.65;4.55;;;;;;;23.03;34.63;96138.88;5066278;28;21256;-79
2022/05/20 07:25:27;;;;;;;4.70;4.20;;;;;;;22.58;35.67;96141.84;5066008;28;20206;-79
2022/05/20 07:27:59;;;;;;;6.60;4.50;;;;;;;22.46;35.70;96153.00;5066554;28;20229;-79
2022/05/20 07:30:27;;;;;;;10.50;4.85;;;;;;;22.76;35.26;96145.84;5066411;28;20206;-78
2022/05/20 07:32:54;;;;;;;8.23;4.78;;;;;;;23.16;35.15;96140.69;5067737;28;20221;-76
2022/05/20 07:35:21;;;;;;;9.07;4.85;;;;;;;22.74;34.72;96137.34;5066028;28;20292;-77
2022/05/20 07:37:49;;;;;;;5.43;4.70;;;;;;;22.60;35.64;96142.56;5067482;28;20235;-80
2022/05/20 07:40:16;;;;;;;7.55;4.50;;;;;;;22.64;35.05;96126.72;5066255;28;20214;-76
2022/05/20 07:42:43;;;;;;;11.75;4.82;;;;;;;22.61;35.95;96141.66;5066986;28;20258;-78
2022/05/20 07:45:11;;;;;;;8.50;5.35;;;;;;;22.69;34.76;96134.22;5065851;28;20202;-79
2022/05/20 07:47:38;;;;;;;14.60;5.20;;;;;;;22.94;34.74;96126.53;5064746;28;20358;-78
2022/05/20 07:50:06;;;;;;;8.75;3.55;;;;;;;23.37;34.12;96121.91;5066614;28;20213;-77
2022/05/20 07:55:24;;;;;;;2.85;2.65;;;;;;;23.76;31.13;96121.94;5065512;28;20247;-77
2022/05/20 07:57:52;;;;;;;3.17;2.97;;;;;;;23.20;32.30;96113.63;5066542;28;20206;-76
2022/05/20 08:00:21;;;;;;;6.05;2.85;;;;;;;23.27;32.81;96099.28;5065803;28;20217;-78
2022/05/20 08:02:51;;;;;;;7.07;3.08;;;;;;;23.60;32.12;96110.00;5066811;28;21463;-79
2022/05/20 08:05:20;;;;;;;4.35;3.60;;;;;;;23.66;31.36;96100.97;5065186;28;20205;-78
2022/05/20 08:07:48;;;;;;;3.75;3.33;;;;;;;23.63;31.77;96107.22;5065421;28;20230;-78
2022/05/20 08:10:18;;;;;;;9.40;2.78;;;;;;;23.73;31.76;96108.25;5065266;28;20642;-77
2022/05/20 08:12:45;;;;;;;4.82;3.47;;;;;;;23.72;31.20;96101.38;5066186;28;20231;-77
2022/05/20 08:15:12;;;;;;;3.17;1.98;;;;;;;23.80;30.98;96103.44;5065624;28;20201;-76
2022/05/20 08:17:41;;;;;;;3.17;2.22;;;;;;;23.69;30.67;96101.59;5065691;28;20619;-78
2022/05/20 08:20:13;;;;;;;2.67;2.25;;;;;;;23.54;31.44;96102.63;5065686;28;20233;-76
2022/05/20 08:22:40;;;;;;;7.63;3.15;;;;;;;23.47;31.23;96095.34;5066110;28;20201;-77
2022/05/20 08:25:07;;;;;;;5.40;2.40;;;;;;;23.56;32.16;96103.34;5065331;28;20592;-78
2022/05/20 08:27:35;;;;;;;7.80;3.53;;;;;;;23.68;31.63;96086.97;5065618;28;20231;-78
2022/05/20 08:30:07;;;;;;;2.50;2.30;;;;;;;23.67;31.21;96093.09;5070610;28;20792;-76
2022/05/20 08:32:34;;;;;;;4.60;2.20;;;;;;;23.73;30.65;96092.66;5067912;28;20781;-79
2022/05/20 08:35:04;;;;;;;6.25;2.00;;;;;;;23.71;29.80;96088.53;5065366;28;20624;-78
2022/05/20 08:37:33;;;;;;;6.90;1.90;;;;;;;23.88;30.01;96082.13;5064406;28;20233;-79
2022/05/20 08:40:01;;;;;;;1.92;1.75;;;;;;;24.10;29.32;96077.09;5065745;28;20202;-79
2022/05/20 08:42:30;;;;;;;4.55;2.28;;;;;;;24.05;29.63;96076.59;5065800;28;20271;-77
2022/05/20 08:44:58;;;;;;;2.13;1.92;;;;;;;23.65;28.75;96076.78;5063460;28;20672;-77
2022/05/20 08:47:28;;;;;;;2.30;1.73;;;;;;;23.39;28.51;96069.94;5065394;28;20212;-78
2022/05/20 08:49:59;;;;;;;2.13;1.92;;;;;;;23.55;29.60;96067.97;5064552;28;20668;-77
2022/05/20 08:52:28;;;;;;;3.97;1.80;;;;;;;23.71;29.54;96081.56;5065308;28;20201;-76
2022/05/20 08:54:55;;;;;;;5.50;2.50;;;;;;;24.05;29.98;96076.59;5064387;28;20735;-77
2022/05/20 08:57:25;;;;;;;2.33;1.73;;;;;;;23.96;29.35;96072.06;5065616;28;20193;-79
2022/05/20 08:59:52;;;;;;;4.63;2.00;;;;;;;23.83;29.41;96063.44;5065343;28;20690;-78
2022/05/20 09:02:20;;;;;;;2.92;2.42;;;;;;;24.11;28.89;96059.75;5068182;28;20201;-77
2022/05/20 09:04:47;;;;;;;6.90;1.90;;;;;;;24.35;29.15;96053.63;5064026;28;21229;-80
2022/05/20 09:07:16;;;;;;;3.33;1.92;;;;;;;24.38;28.52;96037.00;5064548;28;20217;-76
2022/05/20 09:09:47;;;;;;;4.63;1.98;;;;;;;24.62;28.59;96044.78;5064654;28;20232;-77
2022/05/20 09:12:27;;;;;;;3.83;2.00;;;;;;;24.62;29.08;96029.19;5063477;28;20206;-80
2022/05/20 09:17:48;;;;;;;2.85;1.90;;;;;;;24.88;29.27;96030.66;5063672;28;20240;-75
2022/05/20 09:20:18;;;;;;;5.43;2.35;;;;;;;25.05;29.27;96029.41;5058690;28;20233;-75
2022/05/20 09:22:56;;;;;;;7.55;3.15;;;;;;;24.91;28.46;96024.41;5063676;28;20201;-76
2022/05/20 09:25:28;;;;;;;2.65;2.30;;;;;;;24.76;28.32;96011.59;5066677;28;20189;-77
2022/05/20 09:28:18;;;;;;;3.30;2.00;;;;;;;24.36;28.96;96018.94;5067916;28;20789;-76
2022/05/20 09:30:49;;;;;;;3.50;1.83;;;;;;;24.58;28.03;96018.19;5068077;28;20213;-75
2022/05/20 09:33:19;;;;;;;5.30;1.63;;;;;;;24.44;27.17;96020.16;5068636;28;20585;-75
2022/05/20 09:35:56;;;;;;;5.63;1.83;;;;;;;24.01;26.65;96008.44;5066914;28;20198;-75
2022/05/20 09:38:38;;;;;;;2.38;1.45;;;;;;;24.26;26.28;96006.72;5068803;28;20271;-75
2022/05/20 09:41:16;;;;;;;4.22;2.55;;;;;;;24.20;26.46;95999.34;5067768;28;20692;-76
2022/05/20 09:43:45;;;;;;;3.03;1.88;;;;;;;24.13;26.29;95991.16;5068115;28;20280;-75
2022/05/20 09:46:30;;;;;;;2.75;1.58;;;;;;;24.55;25.76;95984.63;5066719;28;20604;-74
2022/05/20 09:49:03;;;;;;;4.60;2.90;;;;;;;24.83;25.72;95996.38;5068342;28;20229;-74
2022/05/20 09:51:35;;;;;;;2.97;2.50;;;;;;;25.00;23.43;95989.91;5068042;28;20208;-76
2022/05/20 09:54:13;;;;;;;25.50;18.05;;;;;;;25.39;24.12;95983.44;5066946;28;20228;-76
2022/05/20 09:56:44;;;;;;;4.38;3.25;;;;;;;25.34;23.99;95990.78;5066546;28;20205;-75
2022/05/20 09:59:30;;;;;;;4.65;2.30;;;;;;;25.37;23.04;95996.56;5067882;28;20259;-76
2022/05/20 10:02:03;;;;;;;9.82;1.70;;;;;;;25.47;22.19;95991.50;5068466;28;20650;-75
2022/05/20 10:04:49;;;;;;;1.80;1.30;;;;;;;25.37;22.27;95995.75;5067296;28;22211;-75
2022/05/20 10:07:24;;;;;;;2.00;1.35;;;;;;;25.13;22.80;95976.81;5065947;28;20212;-76
2022/05/20 10:09:57;;;;;;;1.80;1.38;;;;;;;25.11;23.08;95974.34;5067929;28;20220;-76
2022/05/20 10:12:33;;;;;;;3.72;1.60;;;;;;;25.47;22.42;95969.84;5067340;28;20256;-75
2022/05/20 10:15:12;;;;;;;4.13;1.40;;;;;;;25.62;22.66;95959.03;5066523;28;20667;-75
2022/05/20 10:18:06;;;;;;;3.13;1.20;;;;;;;25.65;21.56;95973.63;5067780;28;20208;-74
2022/05/20 10:20:37;;;;;;;1.33;1.23;;;;;;;25.52;22.12;95958.09;5067654;28;20244;-81
2022/05/20 10:23:13;;;;;;;1.35;1.20;;;;;;;25.16;22.06;95961.81;5068063;28;20252;-76
2022/05/20 10:25:52;;;;;;;1.27;1.17;;;;;;;25.01;22.61;95958.59;5067126;28;20201;-77
2022/05/20 10:34:07;;;;;;;1.27;1.17;;;;;;;25.88;21.44;95935.34;5066784;28;20209;-78
2022/05/20 10:36:52;;;;;;;1.80;1.70;;;;;;;25.56;20.23;95943.91;5066131;28;20224;-75
2022/05/20 10:39:33;;;;;;;4.28;3.22;;;;;;;25.29;20.42;95940.88;5067779;28;20679;-77
2022/05/20 10:42:17;;;;;;;7.00;2.40;;;;;;;25.15;19.68;95939.34;5066992;28;20271;-80
2022/05/20 10:50:58;;;;;;;4.25;1.90;;;;;;;25.79;20.87;95918.66;5065156;28;20707;-77
2022/05/20 10:53:38;;;;;;;1.70;1.60;;;;;;;25.67;20.01;95917.88;5064711;28;20210;-77
2022/05/20 10:56:25;;;;;;;2.30;2.20;;;;;;;25.58;20.20;95913.38;5064547;28;20198;-77
2022/05/20 10:59:09;;;;;;;2.63;2.15;;;;;;;25.55;20.36;95918.81;5066694;28;20324;-78
2022/05/20 11:01:49;;;;;;;3.00;2.70;;;;;;;25.60;19.77;95908.88;5065211;28;20201;-78
2022/05/20 11:04:43;;;;;;;5.10;3.05;;;;;;;25.48;20.07;95889.03;5065344;28;20212;-78
2022/05/20 11:07:42;;;;;;;3.55;3.22;;;;;;;25.97;20.01;95906.78;5065438;28;20301;-78
2022/05/20 11:10:24;;;;;;;2.42;2.22;;;;;;;26.17;19.55;95901.72;5065879;28;20240;-77
2022/05/20 11:13:01;;;;;;;4.93;3.65;;;;;;;25.75;19.12;95905.06;5066350;28;20214;-79
2022/05/20 11:15:53;;;;;;;4.25;3.85;;;;;;;25.61;18.16;95899.28;5065700;28;20189;-80
2022/05/20 11:18:38;;;;;;;2.25;2.05;;;;;;;25.88;19.77;95897.09;5068246;28;20663;-77
2022/05/20 11:21:20;;;;;;;2.17;2.08;;;;;;;26.00;19.10;95893.50;5065926;28;20232;-78
2022/05/20 11:24:06;;;;;;;6.05;3.20;;;;;;;26.07;19.68;95891.22;5066905;28;20278;-80
2022/05/20 11:27:00;;;;;;;7.95;3.05;;;;;;;25.96;19.76;95886.06;5069712;28;20563;-80
2022/05/20 11:29:52;;;;;;;3.20;3.00;;;;;;;26.22;20.13;95876.94;5079903;28;20245;-78
2022/05/20 11:32:29;;;;;;;2.78;2.58;;;;;;;26.32;19.12;95875.25;5067504;28;20237;-79
2022/05/20 11:35:23;;;;;;;4.32;3.03;;;;;;;25.87;20.11;95876.41;5067531;28;20205;-81
2022/05/20 11:38:12;;;;;;;3.75;2.95;;;;;;;25.66;20.10;95866.78;5066969;28;20209;-78
2022/05/20 11:40:55;;;;;;;7.88;3.20;;;;;;;25.72;19.61;95860.25;5067213;28;20383;-80
2022/05/20 11:43:53;;;;;;;3.30;2.30;;;;;;;25.72;20.50;95863.69;5067107;28;20214;-78
2022/05/20 11:46:32;;;;;;;2.00;1.90;;;;;;;25.92;20.04;95862.06;5065500;28;20197;-79
2022/05/20 11:49:16;;;;;;;1.50;1.40;;;;;;;25.78;19.72;95854.53;5067085;28;20316;-79
2022/05/20 11:52:13;;;;;;;5.07;2.20;;;;;;;25.35;19.85;95836.31;5066005;28;20329;-79
2022/05/20 11:54:47;;;;;;;1.90;1.70;;;;;;;25.59;20.43;95847.34;5066055;28;20914;-78
2022/05/20 11:57:17;;;;;;;7.55;1.95;;;;;;;25.35;19.53;95851.91;5066237;28;20209;-80
2022/05/20 11:59:52;;;;;;;2.05;1.90;;;;;;;25.82;20.16;95844.69;5065567;28;20219;-80
2022/05/20 12:02:20;;;;;;;4.00;1.67;;;;;;;25.98;19.94;95842.50;5066400;28;20250;-79
2022/05/20 12:04:49;;;;;;;2.85;1.50;;;;;;;25.86;19.23;95839.09;5064754;28;20201;-79
2022/05/20 12:07:20;;;;;;;1.40;1.30;;;;;;;25.57;19.12;95828.44;5065199;28;20699;-81
2022/05/20 12:09:48;;;;;;;1.80;1.20;;;;;;;25.90;19.40;95835.31;5065538;28;20699;-78
2022/05/20 12:12:24;;;;;;;1.30;1.17;;;;;;;26.25;20.79;95837.56;5065775;28;20205;-79
2022/05/20 12:15:02;;;;;;;1.08;1.00;;;;;;;26.42;19.85;95828.41;5066222;28;20601;-79
2022/05/20 12:17:31;;;;;;;2.70;1.20;;;;;;;26.37;18.68;95820.97;5065095;28;20284;-80
2022/05/20 12:25:46;;;;;;;0.80;0.80;;;;;;;26.19;18.95;95819.03;5026054;28;20202;-80
2022/05/20 12:28:32;;;;;;;2.40;0.90;;;;;;;25.88;19.37;95812.94;5065946;28;20205;-78
2022/05/20 12:31:09;;;;;;;2.25;1.08;;;;;;;26.02;20.15;95810.00;5064868;28;20225;-80
2022/05/20 12:33:54;;;;;;;3.45;1.58;;;;;;;26.24;20.26;95801.22;5066077;28;20205;-79
2022/05/20 12:36:24;;;;;;;2.30;1.52;;;;;;;26.28;20.77;95808.66;5064726;28;20688;-79